Terminal Aerodrome Forecast
Issued by NWS Mt. Holly, NJ

Home | Current Version | Previous Version | Text Only | Print | Product List | Glossary On
Versions: 1 2 3 4 5 6 7 8 9 10 11 12 13 14 15
000
FTUS41 KPHI 020700 AAA
TAFACY
TAF AMD
KACY 020741Z 0208/0306 VRB04KT 3SM -RA BR SCT009 OVC015
      TEMPO 0208/0212 2SM RA BR BKN009 OVC015
     FM021400 04006KT 6SM -RA OVC020
     FM021800 08008KT P6SM BKN050
     FM030300 04003KT P6SM -RA BKN025 OVC050=

USA.gov is the U.S. government's official web portal to all federal, state and local government web resources and services.